sensor_id;sensor_type;location;lat;lon;timestamp;P1;durP1;ratioP1;P2;durP2;ratioP2
13953;SDS011;7049;49.444;8.522;2022-10-31T00:00:52;0.90;;;0.90;;
13953;SDS011;7049;49.444;8.522;2022-10-31T00:05:55;1.13;;;0.90;;
13953;SDS011;7049;49.444;8.522;2022-10-31T00:10:57;1.03;;;0.63;;
13953;SDS011;7049;49.444;8.522;2022-10-31T00:15:58;0.30;;;0.30;;
13953;SDS011;7049;49.444;8.522;2022-10-31T00:21:02;1.30;;;1.10;;
13953;SDS011;7049;49.444;8.522;2022-10-31T00:26:04;0.93;;;0.90;;
13953;SDS011;7049;49.444;8.522;2022-10-31T00:31:07;1.40;;;0.80;;
13953;SDS011;7049;49.444;8.522;2022-10-31T00:36:12;1.00;;;0.93;;
13953;SDS011;7049;49.444;8.522;2022-10-31T00:41:15;0.53;;;0.53;;
13953;SDS011;7049;49.444;8.522;2022-10-31T00:46:17;1.57;;;1.27;;
13953;SDS011;7049;49.444;8.522;2022-10-31T00:51:20;0.70;;;0.63;;
13953;SDS011;7049;49.444;8.522;2022-10-31T00:56:21;2.40;;;1.63;;
13953;SDS011;7049;49.444;8.522;2022-10-31T01:01:23;1.00;;;1.00;;
13953;SDS011;7049;49.444;8.522;2022-10-31T01:06:26;0.97;;;0.97;;
13953;SDS011;7049;49.444;8.522;2022-10-31T01:11:27;1.40;;;0.80;;
13953;SDS011;7049;49.444;8.522;2022-10-31T01:16:28;1.63;;;1.20;;
13953;SDS011;7049;49.444;8.522;2022-10-31T01:21:31;1.27;;;1.17;;
13953;SDS011;7049;49.444;8.522;2022-10-31T01:26:33;0.57;;;0.57;;
13953;SDS011;7049;49.444;8.522;2022-10-31T01:31:35;0.73;;;0.70;;
13953;SDS011;7049;49.444;8.522;2022-10-31T01:36:40;1.03;;;0.93;;
13953;SDS011;7049;49.444;8.522;2022-10-31T01:41:43;0.87;;;0.87;;
13953;SDS011;7049;49.444;8.522;2022-10-31T01:46:47;1.00;;;1.00;;
13953;SDS011;7049;49.444;8.522;2022-10-31T01:51:54;1.60;;;1.37;;
13953;SDS011;7049;49.444;8.522;2022-10-31T01:56:59;0.40;;;0.40;;
13953;SDS011;7049;49.444;8.522;2022-10-31T02:02:03;1.37;;;1.20;;
13953;SDS011;7049;49.444;8.522;2022-10-31T02:07:07;1.10;;;0.87;;
13953;SDS011;7049;49.444;8.522;2022-10-31T02:12:12;1.30;;;1.10;;
13953;SDS011;7049;49.444;8.522;2022-10-31T02:17:14;0.90;;;0.90;;
13953;SDS011;7049;49.444;8.522;2022-10-31T02:22:19;1.10;;;1.00;;
13953;SDS011;7049;49.444;8.522;2022-10-31T02:33:08;0.90;;;0.90;;
13953;SDS011;7049;49.444;8.522;2022-10-31T02:38:24;1.27;;;1.13;;
13953;SDS011;7049;49.444;8.522;2022-10-31T02:43:35;0.53;;;0.53;;
13953;SDS011;7049;49.444;8.522;2022-10-31T02:48:45;0.80;;;0.73;;
13953;SDS011;7049;49.444;8.522;2022-10-31T02:53:49;0.73;;;0.73;;
13953;SDS011;7049;49.444;8.522;2022-10-31T02:58:51;2.90;;;1.00;;
13953;SDS011;7049;49.444;8.522;2022-10-31T03:04:02;1.07;;;1.07;;
13953;SDS011;7049;49.444;8.522;2022-10-31T03:09:19;0.37;;;0.37;;
13953;SDS011;7049;49.444;8.522;2022-10-31T03:14:26;0.73;;;0.73;;
13953;SDS011;7049;49.444;8.522;2022-10-31T03:19:39;0.87;;;0.77;;
13953;SDS011;7049;49.444;8.522;2022-10-31T03:24:42;0.87;;;0.87;;
13953;SDS011;7049;49.444;8.522;2022-10-31T03:29:45;0.70;;;0.60;;
13953;SDS011;7049;49.444;8.522;2022-10-31T03:34:51;0.57;;;0.57;;
13953;SDS011;7049;49.444;8.522;2022-10-31T03:39:58;0.97;;;0.90;;
13953;SDS011;7049;49.444;8.522;2022-10-31T03:45:03;0.73;;;0.70;;
13953;SDS011;7049;49.444;8.522;2022-10-31T03:50:10;0.60;;;0.50;;
13953;SDS011;7049;49.444;8.522;2022-10-31T03:55:17;0.73;;;0.73;;
13953;SDS011;7049;49.444;8.522;2022-10-31T04:00:20;0.87;;;0.87;;
13953;SDS011;7049;49.444;8.522;2022-10-31T04:05:23;1.00;;;1.00;;
13953;SDS011;7049;49.444;8.522;2022-10-31T04:10:25;0.60;;;0.60;;
13953;SDS011;7049;49.444;8.522;2022-10-31T04:15:29;0.53;;;0.53;;
13953;SDS011;7049;49.444;8.522;2022-10-31T04:20:34;1.10;;;1.00;;
13953;SDS011;7049;49.444;8.522;2022-10-31T04:25:38;1.47;;;1.40;;
13953;SDS011;7049;49.444;8.522;2022-10-31T04:30:39;0.70;;;0.70;;
13953;SDS011;7049;49.444;8.522;2022-10-31T04:35:42;3.50;;;1.47;;
13953;SDS011;7049;49.444;8.522;2022-10-31T04:40:44;0.73;;;0.73;;
13953;SDS011;7049;49.444;8.522;2022-10-31T04:45:47;0.87;;;0.87;;
13953;SDS011;7049;49.444;8.522;2022-10-31T04:50:50;1.37;;;1.17;;
13953;SDS011;7049;49.444;8.522;2022-10-31T04:55:51;1.10;;;0.43;;
13953;SDS011;7049;49.444;8.522;2022-10-31T05:00:53;0.70;;;0.70;;
13953;SDS011;7049;49.444;8.522;2022-10-31T05:05:56;0.73;;;0.73;;
13953;SDS011;7049;49.444;8.522;2022-10-31T05:10:59;0.37;;;0.37;;
13953;SDS011;7049;49.444;8.522;2022-10-31T05:16:01;6.33;;;0.87;;
13953;SDS011;7049;49.444;8.522;2022-10-31T05:21:04;0.83;;;0.83;;
13953;SDS011;7049;49.444;8.522;2022-10-31T05:26:06;0.70;;;0.70;;
13953;SDS011;7049;49.444;8.522;2022-10-31T05:31:07;1.60;;;1.50;;
13953;SDS011;7049;49.444;8.522;2022-10-31T05:36:10;1.53;;;0.77;;
13953;SDS011;7049;49.444;8.522;2022-10-31T05:41:12;0.87;;;0.87;;
13953;SDS011;7049;49.444;8.522;2022-10-31T05:46:13;0.80;;;0.80;;
13953;SDS011;7049;49.444;8.522;2022-10-31T05:51:16;0.67;;;0.67;;
13953;SDS011;7049;49.444;8.522;2022-10-31T05:56:17;0.80;;;0.80;;
13953;SDS011;7049;49.444;8.522;2022-10-31T06:01:19;0.60;;;0.60;;
13953;SDS011;7049;49.444;8.522;2022-10-31T06:06:22;0.70;;;0.60;;
13953;SDS011;7049;49.444;8.522;2022-10-31T06:11:23;0.57;;;0.57;;
13953;SDS011;7049;49.444;8.522;2022-10-31T06:16:25;0.50;;;0.50;;
13953;SDS011;7049;49.444;8.522;2022-10-31T06:21:27;2.07;;;1.03;;
13953;SDS011;7049;49.444;8.522;2022-10-31T06:26:29;0.80;;;0.77;;
13953;SDS011;7049;49.444;8.522;2022-10-31T06:31:31;0.50;;;0.50;;
13953;SDS011;7049;49.444;8.522;2022-10-31T06:36:33;0.70;;;0.70;;
13953;SDS011;7049;49.444;8.522;2022-10-31T06:41:35;0.80;;;0.80;;
13953;SDS011;7049;49.444;8.522;2022-10-31T06:46:37;0.87;;;0.87;;
13953;SDS011;7049;49.444;8.522;2022-10-31T06:51:39;1.17;;;0.67;;
13953;SDS011;7049;49.444;8.522;2022-10-31T06:56:41;0.50;;;0.50;;
13953;SDS011;7049;49.444;8.522;2022-10-31T07:01:43;0.60;;;0.60;;
13953;SDS011;7049;49.444;8.522;2022-10-31T07:06:45;0.80;;;0.80;;
13953;SDS011;7049;49.444;8.522;2022-10-31T07:11:47;1.10;;;1.10;;
13953;SDS011;7049;49.444;8.522;2022-10-31T07:16:48;0.90;;;0.90;;
13953;SDS011;7049;49.444;8.522;2022-10-31T07:21:52;1.47;;;1.17;;
13953;SDS011;7049;49.444;8.522;2022-10-31T07:26:53;1.30;;;1.20;;
13953;SDS011;7049;49.444;8.522;2022-10-31T07:31:55;3.47;;;1.27;;
13953;SDS011;7049;49.444;8.522;2022-10-31T07:36:58;0.70;;;0.70;;
13953;SDS011;7049;49.444;8.522;2022-10-31T07:41:59;1.20;;;0.97;;
13953;SDS011;7049;49.444;8.522;2022-10-31T07:47:01;1.07;;;1.07;;
13953;SDS011;7049;49.444;8.522;2022-10-31T07:52:04;0.70;;;0.70;;
13953;SDS011;7049;49.444;8.522;2022-10-31T07:57:05;0.97;;;0.97;;
13953;SDS011;7049;49.444;8.522;2022-10-31T08:02:07;0.90;;;0.90;;
13953;SDS011;7049;49.444;8.522;2022-10-31T08:07:10;0.97;;;0.97;;
13953;SDS011;7049;49.444;8.522;2022-10-31T08:12:12;1.47;;;1.17;;
13953;SDS011;7049;49.444;8.522;2022-10-31T08:17:13;0.60;;;0.60;;
13953;SDS011;7049;49.444;8.522;2022-10-31T08:22:16;1.00;;;0.97;;
13953;SDS011;7049;49.444;8.522;2022-10-31T08:27:18;1.17;;;1.17;;
13953;SDS011;7049;49.444;8.522;2022-10-31T08:32:19;1.23;;;1.23;;
13953;SDS011;7049;49.444;8.522;2022-10-31T08:37:22;1.13;;;1.03;;
13953;SDS011;7049;49.444;8.522;2022-10-31T08:42:23;0.83;;;0.83;;
13953;SDS011;7049;49.444;8.522;2022-10-31T08:47:25;1.77;;;1.30;;
13953;SDS011;7049;49.444;8.522;2022-10-31T08:52:29;1.37;;;0.70;;
13953;SDS011;7049;49.444;8.522;2022-10-31T08:57:30;1.93;;;1.40;;
13953;SDS011;7049;49.444;8.522;2022-10-31T09:02:32;0.83;;;0.83;;
13953;SDS011;7049;49.444;8.522;2022-10-31T09:07:35;1.10;;;1.10;;
13953;SDS011;7049;49.444;8.522;2022-10-31T09:12:36;0.97;;;0.97;;
13953;SDS011;7049;49.444;8.522;2022-10-31T09:17:38;1.17;;;0.90;;
13953;SDS011;7049;49.444;8.522;2022-10-31T09:22:40;1.27;;;1.27;;
13953;SDS011;7049;49.444;8.522;2022-10-31T09:27:42;1.50;;;1.40;;
13953;SDS011;7049;49.444;8.522;2022-10-31T09:32:43;1.20;;;1.20;;
13953;SDS011;7049;49.444;8.522;2022-10-31T09:37:46;2.00;;;1.17;;
13953;SDS011;7049;49.444;8.522;2022-10-31T09:42:51;3.20;;;1.30;;
13953;SDS011;7049;49.444;8.522;2022-10-31T09:48:19;1.70;;;1.60;;
13953;SDS011;7049;49.444;8.522;2022-10-31T09:53:32;4.13;;;1.63;;
13953;SDS011;7049;49.444;8.522;2022-10-31T09:58:40;0.67;;;0.67;;
13953;SDS011;7049;49.444;8.522;2022-10-31T10:03:45;2.87;;;1.40;;
13953;SDS011;7049;49.444;8.522;2022-10-31T10:08:52;1.50;;;1.40;;
13953;SDS011;7049;49.444;8.522;2022-10-31T10:13:57;1.47;;;1.37;;
13953;SDS011;7049;49.444;8.522;2022-10-31T10:19:19;1.27;;;1.17;;
13953;SDS011;7049;49.444;8.522;2022-10-31T10:24:33;1.47;;;1.37;;
13953;SDS011;7049;49.444;8.522;2022-10-31T10:29:45;1.30;;;1.13;;
13953;SDS011;7049;49.444;8.522;2022-10-31T10:34:53;0.80;;;0.80;;
13953;SDS011;7049;49.444;8.522;2022-10-31T10:40:03;1.30;;;1.20;;
13953;SDS011;7049;49.444;8.522;2022-10-31T10:45:13;1.63;;;1.53;;
13953;SDS011;7049;49.444;8.522;2022-10-31T10:50:34;1.73;;;1.63;;
13953;SDS011;7049;49.444;8.522;2022-10-31T10:55:41;1.50;;;1.40;;
13953;SDS011;7049;49.444;8.522;2022-10-31T11:00:50;1.10;;;1.10;;
13953;SDS011;7049;49.444;8.522;2022-10-31T11:05:55;1.80;;;1.63;;
13953;SDS011;7049;49.444;8.522;2022-10-31T11:11:00;1.83;;;1.47;;
13953;SDS011;7049;49.444;8.522;2022-10-31T11:16:06;13.07;;;1.90;;
13953;SDS011;7049;49.444;8.522;2022-10-31T11:21:19;3.43;;;2.27;;
13953;SDS011;7049;49.444;8.522;2022-10-31T11:26:23;8.87;;;1.83;;
13953;SDS011;7049;49.444;8.522;2022-10-31T11:31:25;2.90;;;1.43;;
13953;SDS011;7049;49.444;8.522;2022-10-31T11:36:29;2.07;;;1.83;;
13953;SDS011;7049;49.444;8.522;2022-10-31T11:41:34;1.87;;;1.77;;
13953;SDS011;7049;49.444;8.522;2022-10-31T11:46:39;1.90;;;1.80;;
13953;SDS011;7049;49.444;8.522;2022-10-31T11:51:46;1.47;;;1.37;;
13953;SDS011;7049;49.444;8.522;2022-10-31T11:56:51;2.03;;;1.80;;
13953;SDS011;7049;49.444;8.522;2022-10-31T12:01:53;6.00;;;1.83;;
13953;SDS011;7049;49.444;8.522;2022-10-31T12:06:56;2.03;;;1.87;;
13953;SDS011;7049;49.444;8.522;2022-10-31T12:12:05;3.23;;;2.30;;
13953;SDS011;7049;49.444;8.522;2022-10-31T12:17:26;6.90;;;2.53;;
13953;SDS011;7049;49.444;8.522;2022-10-31T12:22:36;1.87;;;1.73;;
13953;SDS011;7049;49.444;8.522;2022-10-31T12:27:53;1.57;;;1.47;;
13953;SDS011;7049;49.444;8.522;2022-10-31T12:33:05;3.47;;;1.70;;
13953;SDS011;7049;49.444;8.522;2022-10-31T12:38:22;1.30;;;1.20;;
13953;SDS011;7049;49.444;8.522;2022-10-31T12:43:46;2.23;;;2.07;;
13953;SDS011;7049;49.444;8.522;2022-10-31T12:54:35;1.87;;;1.77;;
13953;SDS011;7049;49.444;8.522;2022-10-31T12:59:45;2.07;;;1.87;;
13953;SDS011;7049;49.444;8.522;2022-10-31T13:04:52;1.30;;;1.20;;
13953;SDS011;7049;49.444;8.522;2022-10-31T13:09:58;1.73;;;1.63;;
13953;SDS011;7049;49.444;8.522;2022-10-31T13:15:05;1.40;;;1.30;;
13953;SDS011;7049;49.444;8.522;2022-10-31T13:20:21;1.83;;;1.67;;
13953;SDS011;7049;49.444;8.522;2022-10-31T13:25:28;3.07;;;1.70;;
13953;SDS011;7049;49.444;8.522;2022-10-31T13:30:36;1.83;;;1.60;;
13953;SDS011;7049;49.444;8.522;2022-10-31T13:35:42;1.50;;;1.40;;
13953;SDS011;7049;49.444;8.522;2022-10-31T13:40:51;1.07;;;1.07;;
13953;SDS011;7049;49.444;8.522;2022-10-31T13:45:57;1.80;;;1.47;;
13953;SDS011;7049;49.444;8.522;2022-10-31T13:51:00;2.00;;;1.47;;
13953;SDS011;7049;49.444;8.522;2022-10-31T13:56:04;2.50;;;1.90;;
13953;SDS011;7049;49.444;8.522;2022-10-31T14:01:18;2.93;;;1.83;;
13953;SDS011;7049;49.444;8.522;2022-10-31T14:06:22;2.57;;;2.00;;
13953;SDS011;7049;49.444;8.522;2022-10-31T14:11:35;2.03;;;1.80;;
13953;SDS011;7049;49.444;8.522;2022-10-31T14:16:38;3.17;;;2.03;;
13953;SDS011;7049;49.444;8.522;2022-10-31T14:21:44;1.77;;;1.67;;
13953;SDS011;7049;49.444;8.522;2022-10-31T14:26:54;1.80;;;1.70;;
13953;SDS011;7049;49.444;8.522;2022-10-31T14:32:18;2.33;;;1.40;;
13953;SDS011;7049;49.444;8.522;2022-10-31T14:37:30;1.27;;;1.27;;
13953;SDS011;7049;49.444;8.522;2022-10-31T14:42:42;1.30;;;1.30;;
13953;SDS011;7049;49.444;8.522;2022-10-31T14:47:59;2.30;;;1.93;;
13953;SDS011;7049;49.444;8.522;2022-10-31T14:53:11;2.80;;;2.60;;
13953;SDS011;7049;49.444;8.522;2022-10-31T14:58:19;1.60;;;1.50;;
13953;SDS011;7049;49.444;8.522;2022-10-31T15:03:24;2.93;;;1.73;;
13953;SDS011;7049;49.444;8.522;2022-10-31T15:08:32;2.00;;;1.90;;
13953;SDS011;7049;49.444;8.522;2022-10-31T15:13:41;1.43;;;1.37;;
13953;SDS011;7049;49.444;8.522;2022-10-31T15:18:47;1.33;;;1.23;;
13953;SDS011;7049;49.444;8.522;2022-10-31T15:23:52;1.57;;;1.47;;
13953;SDS011;7049;49.444;8.522;2022-10-31T15:28:59;1.20;;;1.20;;
13953;SDS011;7049;49.444;8.522;2022-10-31T15:34:04;2.30;;;1.57;;
13953;SDS011;7049;49.444;8.522;2022-10-31T15:39:09;1.20;;;1.17;;
13953;SDS011;7049;49.444;8.522;2022-10-31T15:44:12;1.30;;;1.30;;
13953;SDS011;7049;49.444;8.522;2022-10-31T15:49:22;1.30;;;1.27;;
13953;SDS011;7049;49.444;8.522;2022-10-31T15:54:31;2.13;;;1.60;;
13953;SDS011;7049;49.444;8.522;2022-10-31T15:59:33;1.50;;;1.40;;
13953;SDS011;7049;49.444;8.522;2022-10-31T16:04:36;1.47;;;1.27;;
13953;SDS011;7049;49.444;8.522;2022-10-31T16:09:48;3.97;;;2.17;;
13953;SDS011;7049;49.444;8.522;2022-10-31T16:14:50;3.93;;;2.13;;
13953;SDS011;7049;49.444;8.522;2022-10-31T16:19:56;2.23;;;2.00;;
13953;SDS011;7049;49.444;8.522;2022-10-31T16:25:02;3.63;;;1.57;;
13953;SDS011;7049;49.444;8.522;2022-10-31T16:30:29;1.23;;;1.13;;
13953;SDS011;7049;49.444;8.522;2022-10-31T16:35:38;1.23;;;1.17;;
13953;SDS011;7049;49.444;8.522;2022-10-31T16:40:40;2.53;;;2.23;;
13953;SDS011;7049;49.444;8.522;2022-10-31T16:45:42;1.87;;;1.57;;
13953;SDS011;7049;49.444;8.522;2022-10-31T16:50:46;4.23;;;1.73;;
13953;SDS011;7049;49.444;8.522;2022-10-31T16:55:50;1.40;;;1.37;;
13953;SDS011;7049;49.444;8.522;2022-10-31T17:00:55;2.47;;;1.97;;
13953;SDS011;7049;49.444;8.522;2022-10-31T17:05:58;1.73;;;1.60;;
13953;SDS011;7049;49.444;8.522;2022-10-31T17:11:00;1.33;;;1.30;;
13953;SDS011;7049;49.444;8.522;2022-10-31T17:16:02;2.30;;;2.07;;
13953;SDS011;7049;49.444;8.522;2022-10-31T17:21:05;1.20;;;1.20;;
13953;SDS011;7049;49.444;8.522;2022-10-31T17:26:06;1.50;;;1.40;;
13953;SDS011;7049;49.444;8.522;2022-10-31T17:31:10;1.07;;;1.07;;
13953;SDS011;7049;49.444;8.522;2022-10-31T17:36:22;2.10;;;1.63;;
13953;SDS011;7049;49.444;8.522;2022-10-31T17:41:23;1.50;;;1.40;;
13953;SDS011;7049;49.444;8.522;2022-10-31T17:46:25;2.27;;;1.80;;
13953;SDS011;7049;49.444;8.522;2022-10-31T17:51:29;2.03;;;1.80;;
13953;SDS011;7049;49.444;8.522;2022-10-31T17:56:30;2.03;;;1.73;;
13953;SDS011;7049;49.444;8.522;2022-10-31T18:01:32;2.03;;;1.70;;
13953;SDS011;7049;49.444;8.522;2022-10-31T18:06:35;2.73;;;2.40;;
13953;SDS011;7049;49.444;8.522;2022-10-31T18:11:36;1.80;;;1.60;;
13953;SDS011;7049;49.444;8.522;2022-10-31T18:16:38;3.73;;;2.00;;
13953;SDS011;7049;49.444;8.522;2022-10-31T18:21:41;11.07;;;2.60;;
13953;SDS011;7049;49.444;8.522;2022-10-31T18:26:43;1.73;;;1.63;;
13953;SDS011;7049;49.444;8.522;2022-10-31T18:31:44;2.47;;;1.73;;
13953;SDS011;7049;49.444;8.522;2022-10-31T18:36:49;4.30;;;1.67;;
13953;SDS011;7049;49.444;8.522;2022-10-31T18:41:50;1.50;;;1.40;;
13953;SDS011;7049;49.444;8.522;2022-10-31T18:46:53;2.40;;;1.80;;
13953;SDS011;7049;49.444;8.522;2022-10-31T18:51:56;1.33;;;1.27;;
13953;SDS011;7049;49.444;8.522;2022-10-31T18:56:58;1.57;;;1.47;;
13953;SDS011;7049;49.444;8.522;2022-10-31T19:01:59;2.00;;;1.87;;
13953;SDS011;7049;49.444;8.522;2022-10-31T19:07:02;1.87;;;1.53;;
13953;SDS011;7049;49.444;8.522;2022-10-31T19:12:04;5.93;;;2.30;;
13953;SDS011;7049;49.444;8.522;2022-10-31T19:17:05;11.27;;;2.10;;
13953;SDS011;7049;49.444;8.522;2022-10-31T19:22:09;1.57;;;1.47;;
13953;SDS011;7049;49.444;8.522;2022-10-31T19:27:10;1.90;;;1.40;;
13953;SDS011;7049;49.444;8.522;2022-10-31T19:32:12;2.10;;;1.40;;
13953;SDS011;7049;49.444;8.522;2022-10-31T19:37:14;1.90;;;1.80;;
13953;SDS011;7049;49.444;8.522;2022-10-31T19:42:16;1.57;;;1.30;;
13953;SDS011;7049;49.444;8.522;2022-10-31T19:47:17;1.80;;;1.70;;
13953;SDS011;7049;49.444;8.522;2022-10-31T19:52:20;4.87;;;1.93;;
13953;SDS011;7049;49.444;8.522;2022-10-31T19:57:22;1.80;;;1.70;;
13953;SDS011;7049;49.444;8.522;2022-10-31T20:02:23;2.50;;;2.30;;
13953;SDS011;7049;49.444;8.522;2022-10-31T20:07:27;2.47;;;2.27;;
13953;SDS011;7049;49.444;8.522;2022-10-31T20:12:29;3.93;;;2.07;;
13953;SDS011;7049;49.444;8.522;2022-10-31T20:17:32;2.93;;;1.90;;
13953;SDS011;7049;49.444;8.522;2022-10-31T20:22:35;2.07;;;1.50;;
13953;SDS011;7049;49.444;8.522;2022-10-31T20:27:37;2.50;;;1.97;;
13953;SDS011;7049;49.444;8.522;2022-10-31T20:32:38;4.03;;;1.87;;
13953;SDS011;7049;49.444;8.522;2022-10-31T20:37:41;2.23;;;2.10;;
13953;SDS011;7049;49.444;8.522;2022-10-31T20:42:43;1.60;;;1.50;;
13953;SDS011;7049;49.444;8.522;2022-10-31T20:47:44;1.80;;;1.70;;
13953;SDS011;7049;49.444;8.522;2022-10-31T20:52:47;4.07;;;2.47;;
13953;SDS011;7049;49.444;8.522;2022-10-31T20:57:49;2.63;;;1.77;;
13953;SDS011;7049;49.444;8.522;2022-10-31T21:02:50;1.47;;;1.47;;
13953;SDS011;7049;49.444;8.522;2022-10-31T21:07:53;3.63;;;1.53;;
13953;SDS011;7049;49.444;8.522;2022-10-31T21:12:55;2.43;;;2.07;;
13953;SDS011;7049;49.444;8.522;2022-10-31T21:17:56;2.80;;;2.57;;
13953;SDS011;7049;49.444;8.522;2022-10-31T21:22:59;3.33;;;1.73;;
13953;SDS011;7049;49.444;8.522;2022-10-31T21:28:01;2.87;;;2.33;;
13953;SDS011;7049;49.444;8.522;2022-10-31T21:33:03;2.20;;;2.00;;
13953;SDS011;7049;49.444;8.522;2022-10-31T21:38:05;5.97;;;1.53;;
13953;SDS011;7049;49.444;8.522;2022-10-31T21:43:07;2.07;;;1.73;;
13953;SDS011;7049;49.444;8.522;2022-10-31T21:48:08;1.40;;;1.30;;
13953;SDS011;7049;49.444;8.522;2022-10-31T21:53:11;2.23;;;1.73;;
13953;SDS011;7049;49.444;8.522;2022-10-31T21:58:30;5.83;;;1.63;;
13953;SDS011;7049;49.444;8.522;2022-10-31T22:03:33;2.10;;;2.00;;
13953;SDS011;7049;49.444;8.522;2022-10-31T22:08:37;2.53;;;2.33;;
13953;SDS011;7049;49.444;8.522;2022-10-31T22:13:39;1.50;;;1.40;;
13953;SDS011;7049;49.444;8.522;2022-10-31T22:18:42;3.63;;;1.70;;
13953;SDS011;7049;49.444;8.522;2022-10-31T22:23:47;1.37;;;1.27;;
13953;SDS011;7049;49.444;8.522;2022-10-31T22:28:51;1.83;;;1.47;;
13953;SDS011;7049;49.444;8.522;2022-10-31T22:33:55;1.77;;;1.53;;
13953;SDS011;7049;49.444;8.522;2022-10-31T22:38:58;2.60;;;2.40;;
13953;SDS011;7049;49.444;8.522;2022-10-31T22:44:00;2.33;;;2.17;;
13953;SDS011;7049;49.444;8.522;2022-10-31T22:49:03;1.10;;;1.10;;
13953;SDS011;7049;49.444;8.522;2022-10-31T22:54:08;1.60;;;1.30;;
13953;SDS011;7049;49.444;8.522;2022-10-31T22:59:13;2.43;;;1.53;;
13953;SDS011;7049;49.444;8.522;2022-10-31T23:04:15;0.87;;;0.87;;
13953;SDS011;7049;49.444;8.522;2022-10-31T23:09:18;1.70;;;1.60;;
13953;SDS011;7049;49.444;8.522;2022-10-31T23:14:20;1.20;;;1.13;;
13953;SDS011;7049;49.444;8.522;2022-10-31T23:19:22;1.40;;;1.30;;
13953;SDS011;7049;49.444;8.522;2022-10-31T23:24:28;2.07;;;1.77;;
13953;SDS011;7049;49.444;8.522;2022-10-31T23:29:33;1.17;;;1.17;;
13953;SDS011;7049;49.444;8.522;2022-10-31T23:34:40;2.70;;;1.20;;
13953;SDS011;7049;49.444;8.522;2022-10-31T23:39:43;1.60;;;1.50;;
13953;SDS011;7049;49.444;8.522;2022-10-31T23:44:44;1.73;;;1.37;;
13953;SDS011;7049;49.444;8.522;2022-10-31T23:49:48;1.40;;;1.30;;
13953;SDS011;7049;49.444;8.522;2022-10-31T23:54:51;0.93;;;0.93;;
13953;SDS011;7049;49.444;8.522;2022-10-31T23:59:53;5.40;;;1.97;;
